sensor_id;sensor_type;location;lat;lon;timestamp;temperature;humidity
39325;DHT22;25037;49.488;9.900;2023-04-03T00:00:35;6.60;58.00
39325;DHT22;25037;49.488;9.900;2023-04-03T00:03:02;6.60;58.00
39325;DHT22;25037;49.488;9.900;2023-04-03T00:05:29;6.60;58.10
39325;DHT22;25037;49.488;9.900;2023-04-03T00:07:56;6.50;58.10
39325;DHT22;25037;49.488;9.900;2023-04-03T00:10:23;6.60;58.00
39325;DHT22;25037;49.488;9.900;2023-04-03T00:12:49;6.60;58.00
39325;DHT22;25037;49.488;9.900;2023-04-03T00:15:16;6.50;58.00
39325;DHT22;25037;49.488;9.900;2023-04-03T00:17:43;6.60;57.90
39325;DHT22;25037;49.488;9.900;2023-04-03T00:20:09;6.60;58.00
39325;DHT22;25037;49.488;9.900;2023-04-03T00:22:36;6.60;57.90
39325;DHT22;25037;49.488;9.900;2023-04-03T00:25:03;6.50;57.90
39325;DHT22;25037;49.488;9.900;2023-04-03T00:27:30;6.50;57.90
39325;DHT22;25037;49.488;9.900;2023-04-03T00:29:57;6.50;57.90
39325;DHT22;25037;49.488;9.900;2023-04-03T00:32:24;6.50;57.90
39325;DHT22;25037;49.488;9.900;2023-04-03T00:34:50;6.50;57.90
39325;DHT22;25037;49.488;9.900;2023-04-03T00:37:17;6.50;57.80
39325;DHT22;25037;49.488;9.900;2023-04-03T00:39:44;6.50;57.80
39325;DHT22;25037;49.488;9.900;2023-04-03T00:42:10;6.50;57.80
39325;DHT22;25037;49.488;9.900;2023-04-03T00:47:06;6.50;57.90
39325;DHT22;25037;49.488;9.900;2023-04-03T00:49:34;6.50;57.90
39325;DHT22;25037;49.488;9.900;2023-04-03T00:52:02;6.50;57.90
39325;DHT22;25037;49.488;9.900;2023-04-03T00:54:29;6.50;57.90
39325;DHT22;25037;49.488;9.900;2023-04-03T00:56:57;6.50;57.80
39325;DHT22;25037;49.488;9.900;2023-04-03T00:59:27;6.50;57.80
39325;DHT22;25037;49.488;9.900;2023-04-03T01:01:57;6.40;57.90
39325;DHT22;25037;49.488;9.900;2023-04-03T01:04:35;6.30;57.90
39325;DHT22;25037;49.488;9.900;2023-04-03T01:07:24;6.30;58.00
39325;DHT22;25037;49.488;9.900;2023-04-03T01:09:57;6.20;58.10
39325;DHT22;25037;49.488;9.900;2023-04-03T01:12:27;6.20;58.20
39325;DHT22;25037;49.488;9.900;2023-04-03T01:14:58;6.00;58.20
39325;DHT22;25037;49.488;9.900;2023-04-03T01:17:35;5.90;58.30
39325;DHT22;25037;49.488;9.900;2023-04-03T01:20:30;5.80;58.30
39325;DHT22;25037;49.488;9.900;2023-04-03T01:25:51;5.60;58.70
39325;DHT22;25037;49.488;9.900;2023-04-03T01:28:30;5.50;58.80
39325;DHT22;25037;49.488;9.900;2023-04-03T01:31:20;5.40;59.00
39325;DHT22;25037;49.488;9.900;2023-04-03T01:33:49;5.40;59.20
39325;DHT22;25037;49.488;9.900;2023-04-03T01:36:28;5.20;59.30
39325;DHT22;25037;49.488;9.900;2023-04-03T01:38:56;5.20;59.50
39325;DHT22;25037;49.488;9.900;2023-04-03T01:41:24;5.10;59.60
39325;DHT22;25037;49.488;9.900;2023-04-03T01:43:52;5.10;59.60
39325;DHT22;25037;49.488;9.900;2023-04-03T01:46:19;5.10;59.70
39325;DHT22;25037;49.488;9.900;2023-04-03T01:48:46;5.00;59.90
39325;DHT22;25037;49.488;9.900;2023-04-03T01:51:13;5.00;60.00
39325;DHT22;25037;49.488;9.900;2023-04-03T01:53:40;5.00;60.10
39325;DHT22;25037;49.488;9.900;2023-04-03T01:56:07;4.90;60.20
39325;DHT22;25037;49.488;9.900;2023-04-03T01:58:34;4.90;60.30
39325;DHT22;25037;49.488;9.900;2023-04-03T02:01:00;4.90;60.40
39325;DHT22;25037;49.488;9.900;2023-04-03T02:03:28;4.80;60.50
39325;DHT22;25037;49.488;9.900;2023-04-03T02:05:54;4.80;60.70
39325;DHT22;25037;49.488;9.900;2023-04-03T02:08:21;4.80;60.80
39325;DHT22;25037;49.488;9.900;2023-04-03T02:10:49;4.80;60.90
39325;DHT22;25037;49.488;9.900;2023-04-03T02:13:17;4.70;61.10
39325;DHT22;25037;49.488;9.900;2023-04-03T02:15:43;4.70;61.20
39325;DHT22;25037;49.488;9.900;2023-04-03T02:18:12;4.70;61.30
39325;DHT22;25037;49.488;9.900;2023-04-03T02:20:39;4.60;61.40
39325;DHT22;25037;49.488;9.900;2023-04-03T02:23:06;4.60;61.40
39325;DHT22;25037;49.488;9.900;2023-04-03T02:25:33;4.60;61.50
39325;DHT22;25037;49.488;9.900;2023-04-03T02:28:02;4.50;61.60
39325;DHT22;25037;49.488;9.900;2023-04-03T02:30:28;4.50;61.70
39325;DHT22;25037;49.488;9.900;2023-04-03T02:32:55;4.50;61.80
39325;DHT22;25037;49.488;9.900;2023-04-03T02:35:22;4.50;61.90
39325;DHT22;25037;49.488;9.900;2023-04-03T02:37:49;4.50;61.90
39325;DHT22;25037;49.488;9.900;2023-04-03T02:40:15;4.50;61.90
39325;DHT22;25037;49.488;9.900;2023-04-03T02:42:42;4.50;62.00
39325;DHT22;25037;49.488;9.900;2023-04-03T02:45:09;4.50;62.10
39325;DHT22;25037;49.488;9.900;2023-04-03T02:47:36;4.50;62.10
39325;DHT22;25037;49.488;9.900;2023-04-03T02:50:02;4.50;62.10
39325;DHT22;25037;49.488;9.900;2023-04-03T02:52:29;4.50;62.20
39325;DHT22;25037;49.488;9.900;2023-04-03T02:54:56;4.50;62.10
39325;DHT22;25037;49.488;9.900;2023-04-03T02:57:22;4.50;62.20
39325;DHT22;25037;49.488;9.900;2023-04-03T02:59:49;4.50;62.30
39325;DHT22;25037;49.488;9.900;2023-04-03T03:02:16;4.50;62.40
39325;DHT22;25037;49.488;9.900;2023-04-03T03:04:43;4.50;62.50
39325;DHT22;25037;49.488;9.900;2023-04-03T03:07:09;4.60;62.50
39325;DHT22;25037;49.488;9.900;2023-04-03T03:09:37;4.50;62.50
39325;DHT22;25037;49.488;9.900;2023-04-03T03:12:04;4.50;62.60
39325;DHT22;25037;49.488;9.900;2023-04-03T03:14:31;4.50;62.70
39325;DHT22;25037;49.488;9.900;2023-04-03T03:16:58;4.50;62.80
39325;DHT22;25037;49.488;9.900;2023-04-03T03:19:24;4.50;62.80
39325;DHT22;25037;49.488;9.900;2023-04-03T03:21:51;4.50;62.90
39325;DHT22;25037;49.488;9.900;2023-04-03T03:24:18;4.50;63.00
39325;DHT22;25037;49.488;9.900;2023-04-03T03:26:45;4.40;63.10
39325;DHT22;25037;49.488;9.900;2023-04-03T03:29:11;4.40;63.10
39325;DHT22;25037;49.488;9.900;2023-04-03T03:31:38;4.40;63.20
39325;DHT22;25037;49.488;9.900;2023-04-03T03:34:04;4.30;63.20
39325;DHT22;25037;49.488;9.900;2023-04-03T03:36:31;4.30;63.40
39325;DHT22;25037;49.488;9.900;2023-04-03T03:38:58;4.20;63.50
39325;DHT22;25037;49.488;9.900;2023-04-03T03:41:25;4.10;63.60
39325;DHT22;25037;49.488;9.900;2023-04-03T03:43:52;4.10;63.70
39325;DHT22;25037;49.488;9.900;2023-04-03T03:46:18;4.10;63.80
39325;DHT22;25037;49.488;9.900;2023-04-03T03:48:45;4.10;63.80
39325;DHT22;25037;49.488;9.900;2023-04-03T03:51:12;4.10;63.90
39325;DHT22;25037;49.488;9.900;2023-04-03T03:53:38;4.00;64.00
39325;DHT22;25037;49.488;9.900;2023-04-03T03:56:05;4.00;64.00
39325;DHT22;25037;49.488;9.900;2023-04-03T03:58:32;4.00;64.10
39325;DHT22;25037;49.488;9.900;2023-04-03T04:01:03;4.00;64.10
39325;DHT22;25037;49.488;9.900;2023-04-03T04:03:30;4.00;64.30
39325;DHT22;25037;49.488;9.900;2023-04-03T04:05:57;4.00;64.30
39325;DHT22;25037;49.488;9.900;2023-04-03T04:08:24;4.00;64.30
39325;DHT22;25037;49.488;9.900;2023-04-03T04:10:50;4.00;64.40
39325;DHT22;25037;49.488;9.900;2023-04-03T04:13:17;4.00;64.50
39325;DHT22;25037;49.488;9.900;2023-04-03T04:15:44;4.10;64.50
39325;DHT22;25037;49.488;9.900;2023-04-03T04:18:11;4.10;64.60
39325;DHT22;25037;49.488;9.900;2023-04-03T04:20:37;4.10;64.60
39325;DHT22;25037;49.488;9.900;2023-04-03T04:23:04;4.10;64.60
39325;DHT22;25037;49.488;9.900;2023-04-03T04:25:31;4.10;64.70
39325;DHT22;25037;49.488;9.900;2023-04-03T04:27:57;4.20;64.80
39325;DHT22;25037;49.488;9.900;2023-04-03T04:30:24;4.20;64.80
39325;DHT22;25037;49.488;9.900;2023-04-03T04:32:51;4.20;64.80
39325;DHT22;25037;49.488;9.900;2023-04-03T04:35:17;4.30;64.90
39325;DHT22;25037;49.488;9.900;2023-04-03T04:37:44;4.30;65.00
39325;DHT22;25037;49.488;9.900;2023-04-03T04:40:11;4.30;65.00
39325;DHT22;25037;49.488;9.900;2023-04-03T04:42:38;4.30;65.00
39325;DHT22;25037;49.488;9.900;2023-04-03T04:45:05;4.30;65.00
39325;DHT22;25037;49.488;9.900;2023-04-03T04:47:32;4.30;65.10
39325;DHT22;25037;49.488;9.900;2023-04-03T04:49:58;4.30;65.20
39325;DHT22;25037;49.488;9.900;2023-04-03T04:52:25;4.40;65.30
39325;DHT22;25037;49.488;9.900;2023-04-03T04:54:52;4.50;65.30
39325;DHT22;25037;49.488;9.900;2023-04-03T04:57:18;4.50;65.20
39325;DHT22;25037;49.488;9.900;2023-04-03T04:59:45;4.60;65.20
39325;DHT22;25037;49.488;9.900;2023-04-03T05:02:12;4.70;65.20
39325;DHT22;25037;49.488;9.900;2023-04-03T05:04:39;4.70;65.20
39325;DHT22;25037;49.488;9.900;2023-04-03T05:07:05;4.80;65.20
39325;DHT22;25037;49.488;9.900;2023-04-03T05:09:32;4.80;65.20
39325;DHT22;25037;49.488;9.900;2023-04-03T05:11:59;4.90;65.20
39325;DHT22;25037;49.488;9.900;2023-04-03T05:14:25;4.90;65.10
39325;DHT22;25037;49.488;9.900;2023-04-03T05:16:52;5.00;65.10
39325;DHT22;25037;49.488;9.900;2023-04-03T05:19:20;5.00;65.00
39325;DHT22;25037;49.488;9.900;2023-04-03T05:21:47;5.10;65.00
39325;DHT22;25037;49.488;9.900;2023-04-03T05:24:15;5.10;65.00
39325;DHT22;25037;49.488;9.900;2023-04-03T05:26:43;5.20;65.00
39325;DHT22;25037;49.488;9.900;2023-04-03T05:29:10;5.20;64.90
39325;DHT22;25037;49.488;9.900;2023-04-03T05:31:36;5.20;64.90
39325;DHT22;25037;49.488;9.900;2023-04-03T05:34:03;5.20;65.00
39325;DHT22;25037;49.488;9.900;2023-04-03T05:36:31;5.30;65.00
39325;DHT22;25037;49.488;9.900;2023-04-03T05:38:57;5.30;65.00
39325;DHT22;25037;49.488;9.900;2023-04-03T05:41:24;5.40;65.00
39325;DHT22;25037;49.488;9.900;2023-04-03T05:43:51;5.30;65.00
39325;DHT22;25037;49.488;9.900;2023-04-03T05:46:19;5.40;64.90
39325;DHT22;25037;49.488;9.900;2023-04-03T05:48:47;5.50;64.90
39325;DHT22;25037;49.488;9.900;2023-04-03T05:51:16;5.50;64.80
39325;DHT22;25037;49.488;9.900;2023-04-03T05:53:43;5.60;64.70
39325;DHT22;25037;49.488;9.900;2023-04-03T05:56:11;5.70;64.70
39325;DHT22;25037;49.488;9.900;2023-04-03T05:58:37;5.70;64.60
39325;DHT22;25037;49.488;9.900;2023-04-03T06:01:04;5.80;64.50
39325;DHT22;25037;49.488;9.900;2023-04-03T06:03:32;5.80;64.20
39325;DHT22;25037;49.488;9.900;2023-04-03T06:05:59;5.80;64.10
39325;DHT22;25037;49.488;9.900;2023-04-03T06:08:25;5.80;64.00
39325;DHT22;25037;49.488;9.900;2023-04-03T06:10:52;5.90;64.00
39325;DHT22;25037;49.488;9.900;2023-04-03T06:13:19;5.90;63.80
39325;DHT22;25037;49.488;9.900;2023-04-03T06:15:45;5.90;63.80
39325;DHT22;25037;49.488;9.900;2023-04-03T06:18:13;6.00;63.80
39325;DHT22;25037;49.488;9.900;2023-04-03T06:20:39;6.00;63.60
39325;DHT22;25037;49.488;9.900;2023-04-03T06:23:06;6.00;63.60
39325;DHT22;25037;49.488;9.900;2023-04-03T06:25:34;6.00;63.50
39325;DHT22;25037;49.488;9.900;2023-04-03T06:28:01;6.10;63.40
39325;DHT22;25037;49.488;9.900;2023-04-03T06:30:27;6.20;63.40
39325;DHT22;25037;49.488;9.900;2023-04-03T06:32:54;6.20;63.10
39325;DHT22;25037;49.488;9.900;2023-04-03T06:35:22;6.40;63.00
39325;DHT22;25037;49.488;9.900;2023-04-03T06:37:50;6.60;62.70
39325;DHT22;25037;49.488;9.900;2023-04-03T06:40:22;6.80;62.30
39325;DHT22;25037;49.488;9.900;2023-04-03T06:42:49;7.00;61.50
39325;DHT22;25037;49.488;9.900;2023-04-03T06:45:16;7.30;61.30
39325;DHT22;25037;49.488;9.900;2023-04-03T06:47:43;7.50;60.50
39325;DHT22;25037;49.488;9.900;2023-04-03T06:50:12;7.60;59.90
39325;DHT22;25037;49.488;9.900;2023-04-03T06:52:40;7.80;59.70
39325;DHT22;25037;49.488;9.900;2023-04-03T06:55:08;8.00;59.40
39325;DHT22;25037;49.488;9.900;2023-04-03T06:57:36;8.10;59.10
39325;DHT22;25037;49.488;9.900;2023-04-03T07:00:04;8.20;58.70
39325;DHT22;25037;49.488;9.900;2023-04-03T07:02:31;8.40;58.20
39325;DHT22;25037;49.488;9.900;2023-04-03T07:04:58;8.40;57.40
39325;DHT22;25037;49.488;9.900;2023-04-03T07:07:25;8.30;57.30
39325;DHT22;25037;49.488;9.900;2023-04-03T07:09:52;8.10;57.40
39325;DHT22;25037;49.488;9.900;2023-04-03T07:12:18;8.10;57.80
39325;DHT22;25037;49.488;9.900;2023-04-03T07:14:45;8.00;57.90
39325;DHT22;25037;49.488;9.900;2023-04-03T07:17:12;7.90;57.90
39325;DHT22;25037;49.488;9.900;2023-04-03T07:19:38;7.80;57.70
39325;DHT22;25037;49.488;9.900;2023-04-03T07:22:05;7.70;57.50
39325;DHT22;25037;49.488;9.900;2023-04-03T07:24:32;7.50;57.40
39325;DHT22;25037;49.488;9.900;2023-04-03T07:26:59;7.40;57.70
39325;DHT22;25037;49.488;9.900;2023-04-03T07:29:26;7.30;57.70
39325;DHT22;25037;49.488;9.900;2023-04-03T07:31:53;7.40;57.70
39325;DHT22;25037;49.488;9.900;2023-04-03T07:34:21;7.50;57.70
39325;DHT22;25037;49.488;9.900;2023-04-03T07:36:48;7.50;57.10
39325;DHT22;25037;49.488;9.900;2023-04-03T07:39:15;7.50;57.20
39325;DHT22;25037;49.488;9.900;2023-04-03T07:41:41;7.70;57.20
39325;DHT22;25037;49.488;9.900;2023-04-03T07:44:08;7.70;57.00
39325;DHT22;25037;49.488;9.900;2023-04-03T07:46:36;7.80;56.80
39325;DHT22;25037;49.488;9.900;2023-04-03T07:49:03;7.80;56.20
39325;DHT22;25037;49.488;9.900;2023-04-03T07:51:30;7.80;55.90
39325;DHT22;25037;49.488;9.900;2023-04-03T07:53:57;8.00;55.90
39325;DHT22;25037;49.488;9.900;2023-04-03T07:56:25;8.30;56.00
39325;DHT22;25037;49.488;9.900;2023-04-03T07:58:51;8.50;55.50
39325;DHT22;25037;49.488;9.900;2023-04-03T08:01:18;8.80;55.00
39325;DHT22;25037;49.488;9.900;2023-04-03T08:03:45;9.00;54.60
39325;DHT22;25037;49.488;9.900;2023-04-03T08:06:12;9.20;54.10
39325;DHT22;25037;49.488;9.900;2023-04-03T08:08:42;9.10;53.00
39325;DHT22;25037;49.488;9.900;2023-04-03T08:11:10;9.20;53.30
39325;DHT22;25037;49.488;9.900;2023-04-03T08:13:37;9.20;53.30
39325;DHT22;25037;49.488;9.900;2023-04-03T08:16:09;9.30;53.20
39325;DHT22;25037;49.488;9.900;2023-04-03T08:18:37;9.40;53.00
39325;DHT22;25037;49.488;9.900;2023-04-03T08:21:09;9.60;52.90
39325;DHT22;25037;49.488;9.900;2023-04-03T08:23:36;9.60;52.30
39325;DHT22;25037;49.488;9.900;2023-04-03T08:26:14;9.50;51.60
39325;DHT22;25037;49.488;9.900;2023-04-03T08:28:41;9.50;52.10
39325;DHT22;25037;49.488;9.900;2023-04-03T08:31:12;9.50;52.30
39325;DHT22;25037;49.488;9.900;2023-04-03T08:33:39;9.70;51.90
39325;DHT22;25037;49.488;9.900;2023-04-03T08:36:14;9.90;51.80
39325;DHT22;25037;49.488;9.900;2023-04-03T08:38:42;9.90;51.50
39325;DHT22;25037;49.488;9.900;2023-04-03T08:41:16;9.90;51.10
39325;DHT22;25037;49.488;9.900;2023-04-03T08:47:25;9.70;51.30
39325;DHT22;25037;49.488;9.900;2023-04-03T08:50:02;9.90;51.60
39325;DHT22;25037;49.488;9.900;2023-04-03T08:52:38;10.00;51.50
39325;DHT22;25037;49.488;9.900;2023-04-03T08:55:28;10.10;50.70
39325;DHT22;25037;49.488;9.900;2023-04-03T08:58:04;10.00;51.00
39325;DHT22;25037;49.488;9.900;2023-04-03T09:00:43;10.10;51.20
39325;DHT22;25037;49.488;9.900;2023-04-03T09:03:16;10.40;51.10
39325;DHT22;25037;49.488;9.900;2023-04-03T09:06:00;10.50;50.40
39325;DHT22;25037;49.488;9.900;2023-04-03T09:16:58;10.00;49.50
39325;DHT22;25037;49.488;9.900;2023-04-03T09:22:17;10.00;49.90
39325;DHT22;25037;49.488;9.900;2023-04-03T09:24:50;10.00;49.80
39325;DHT22;25037;49.488;9.900;2023-04-03T09:27:18;9.70;50.30
39325;DHT22;25037;49.488;9.900;2023-04-03T09:29:45;9.60;50.50
39325;DHT22;25037;49.488;9.900;2023-04-03T09:32:33;9.60;50.70
39325;DHT22;25037;49.488;9.900;2023-04-03T09:41:05;9.70;49.70
39325;DHT22;25037;49.488;9.900;2023-04-03T09:43:33;9.70;49.50
39325;DHT22;25037;49.488;9.900;2023-04-03T09:48:57;9.50;48.20
39325;DHT22;25037;49.488;9.900;2023-04-03T09:51:34;9.30;48.60
39325;DHT22;25037;49.488;9.900;2023-04-03T09:57:01;9.50;48.60
39325;DHT22;25037;49.488;9.900;2023-04-03T09:59:31;9.50;48.50
39325;DHT22;25037;49.488;9.900;2023-04-03T10:04:57;9.80;48.30
39325;DHT22;25037;49.488;9.900;2023-04-03T10:07:37;9.90;48.10
39325;DHT22;25037;49.488;9.900;2023-04-03T10:10:17;9.80;46.70
39325;DHT22;25037;49.488;9.900;2023-04-03T10:12:44;9.70;46.00
39325;DHT22;25037;49.488;9.900;2023-04-03T10:15:16;9.70;46.40
39325;DHT22;25037;49.488;9.900;2023-04-03T10:18:00;9.50;46.10
39325;DHT22;25037;49.488;9.900;2023-04-03T10:20:46;9.40;45.80
39325;DHT22;25037;49.488;9.900;2023-04-03T10:29:36;10.00;45.50
39325;DHT22;25037;49.488;9.900;2023-04-03T10:32:30;10.20;45.20
39325;DHT22;25037;49.488;9.900;2023-04-03T10:35:18;10.20;44.50
39325;DHT22;25037;49.488;9.900;2023-04-03T10:38:12;10.20;44.90
39325;DHT22;25037;49.488;9.900;2023-04-03T10:41:02;10.20;44.60
39325;DHT22;25037;49.488;9.900;2023-04-03T10:46:21;10.40;44.30
39325;DHT22;25037;49.488;9.900;2023-04-03T10:48:59;10.40;44.40
39325;DHT22;25037;49.488;9.900;2023-04-03T10:51:42;10.40;44.60
39325;DHT22;25037;49.488;9.900;2023-04-03T10:54:23;10.50;44.50
39325;DHT22;25037;49.488;9.900;2023-04-03T10:56:56;10.80;44.70
39325;DHT22;25037;49.488;9.900;2023-04-03T10:59:41;10.80;44.10
39325;DHT22;25037;49.488;9.900;2023-04-03T11:04:50;10.20;43.40
39325;DHT22;25037;49.488;9.900;2023-04-03T11:07:26;10.00;43.70
39325;DHT22;25037;49.488;9.900;2023-04-03T11:09:57;10.50;43.90
39325;DHT22;25037;49.488;9.900;2023-04-03T11:12:33;10.70;44.10
39325;DHT22;25037;49.488;9.900;2023-04-03T11:15:03;10.90;43.80
39325;DHT22;25037;49.488;9.900;2023-04-03T11:17:41;10.80;43.30
39325;DHT22;25037;49.488;9.900;2023-04-03T11:20:35;10.80;43.10
39325;DHT22;25037;49.488;9.900;2023-04-03T11:23:26;10.90;43.10
39325;DHT22;25037;49.488;9.900;2023-04-03T11:26:12;10.90;42.10
39325;DHT22;25037;49.488;9.900;2023-04-03T11:28:39;10.80;42.60
39325;DHT22;25037;49.488;9.900;2023-04-03T11:34:37;11.30;42.00
39325;DHT22;25037;49.488;9.900;2023-04-03T11:37:13;11.60;41.20
39325;DHT22;25037;49.488;9.900;2023-04-03T11:39:57;11.70;41.00
39325;DHT22;25037;49.488;9.900;2023-04-03T11:42:37;11.80;40.70
39325;DHT22;25037;49.488;9.900;2023-04-03T11:50:45;12.00;39.80
39325;DHT22;25037;49.488;9.900;2023-04-03T11:58:16;11.50;38.20
39325;DHT22;25037;49.488;9.900;2023-04-03T12:11:15;10.70;38.20
39325;DHT22;25037;49.488;9.900;2023-04-03T12:16:41;10.80;38.30
39325;DHT22;25037;49.488;9.900;2023-04-03T12:35:05;11.80;37.10
39325;DHT22;25037;49.488;9.900;2023-04-03T12:37:48;11.50;36.80
39325;DHT22;25037;49.488;9.900;2023-04-03T12:45:44;11.00;37.60
39325;DHT22;25037;49.488;9.900;2023-04-03T12:48:17;11.10;38.00
39325;DHT22;25037;49.488;9.900;2023-04-03T12:50:46;11.30;37.60
39325;DHT22;25037;49.488;9.900;2023-04-03T12:53:21;11.50;37.70
39325;DHT22;25037;49.488;9.900;2023-04-03T12:55:57;11.70;37.90
39325;DHT22;25037;49.488;9.900;2023-04-03T12:58:43;11.80;37.10
39325;DHT22;25037;49.488;9.900;2023-04-03T13:01:12;11.60;37.60
39325;DHT22;25037;49.488;9.900;2023-04-03T13:03:43;11.50;38.20
39325;DHT22;25037;49.488;9.900;2023-04-03T13:06:28;11.30;38.10
39325;DHT22;25037;49.488;9.900;2023-04-03T13:08:59;11.40;38.20
39325;DHT22;25037;49.488;9.900;2023-04-03T13:11:38;11.20;37.90
39325;DHT22;25037;49.488;9.900;2023-04-03T13:14:21;11.40;37.80
39325;DHT22;25037;49.488;9.900;2023-04-03T13:17:00;11.60;38.00
39325;DHT22;25037;49.488;9.900;2023-04-03T13:19:31;11.80;38.10
39325;DHT22;25037;49.488;9.900;2023-04-03T13:22:35;11.80;36.90
39325;DHT22;25037;49.488;9.900;2023-04-03T13:25:11;11.60;36.90
39325;DHT22;25037;49.488;9.900;2023-04-03T13:27:40;11.50;37.30
39325;DHT22;25037;49.488;9.900;2023-04-03T13:30:32;11.60;37.40
39325;DHT22;25037;49.488;9.900;2023-04-03T13:33:03;11.80;37.00
39325;DHT22;25037;49.488;9.900;2023-04-03T13:35:54;11.90;37.70
39325;DHT22;25037;49.488;9.900;2023-04-03T13:38:26;12.20;37.60
39325;DHT22;25037;49.488;9.900;2023-04-03T13:40:57;12.00;37.10
39325;DHT22;25037;49.488;9.900;2023-04-03T13:43:30;11.80;37.10
39325;DHT22;25037;49.488;9.900;2023-04-03T13:46:04;11.70;36.90
39325;DHT22;25037;49.488;9.900;2023-04-03T13:48:49;11.60;36.90
39325;DHT22;25037;49.488;9.900;2023-04-03T13:51:22;11.60;37.30
39325;DHT22;25037;49.488;9.900;2023-04-03T13:54:10;11.30;36.60
39325;DHT22;25037;49.488;9.900;2023-04-03T13:56:40;11.00;37.10
39325;DHT22;25037;49.488;9.900;2023-04-03T14:01:45;11.30;37.40
39325;DHT22;25037;49.488;9.900;2023-04-03T14:04:20;11.40;37.20
39325;DHT22;25037;49.488;9.900;2023-04-03T14:06:48;11.70;36.90
39325;DHT22;25037;49.488;9.900;2023-04-03T14:09:17;11.80;36.60
39325;DHT22;25037;49.488;9.900;2023-04-03T14:11:45;12.00;36.70
39325;DHT22;25037;49.488;9.900;2023-04-03T14:14:19;12.00;36.90
39325;DHT22;25037;49.488;9.900;2023-04-03T14:16:51;11.80;36.60
39325;DHT22;25037;49.488;9.900;2023-04-03T14:19:31;11.50;35.80
39325;DHT22;25037;49.488;9.900;2023-04-03T14:22:00;11.30;36.20
39325;DHT22;25037;49.488;9.900;2023-04-03T14:24:29;11.40;36.40
39325;DHT22;25037;49.488;9.900;2023-04-03T14:26:57;11.60;36.20
39325;DHT22;25037;49.488;9.900;2023-04-03T14:29:23;11.80;36.30
39325;DHT22;25037;49.488;9.900;2023-04-03T14:31:50;11.80;36.50
39325;DHT22;25037;49.488;9.900;2023-04-03T14:34:29;11.60;36.30
39325;DHT22;25037;49.488;9.900;2023-04-03T14:36:56;11.30;36.60
39325;DHT22;25037;49.488;9.900;2023-04-03T14:39:23;11.10;37.10
39325;DHT22;25037;49.488;9.900;2023-04-03T14:41:50;11.00;37.20
39325;DHT22;25037;49.488;9.900;2023-04-03T14:44:16;11.10;37.50
39325;DHT22;25037;49.488;9.900;2023-04-03T14:46:44;11.20;36.90
39325;DHT22;25037;49.488;9.900;2023-04-03T14:49:26;11.30;35.90
39325;DHT22;25037;49.488;9.900;2023-04-03T14:51:54;11.20;36.20
39325;DHT22;25037;49.488;9.900;2023-04-03T14:54:23;11.30;36.50
39325;DHT22;25037;49.488;9.900;2023-04-03T14:56:55;11.40;36.10
39325;DHT22;25037;49.488;9.900;2023-04-03T14:59:23;11.40;35.80
39325;DHT22;25037;49.488;9.900;2023-04-03T15:01:51;11.20;35.40
39325;DHT22;25037;49.488;9.900;2023-04-03T15:04:19;11.00;35.80
39325;DHT22;25037;49.488;9.900;2023-04-03T15:06:48;10.90;35.50
39325;DHT22;25037;49.488;9.900;2023-04-03T15:09:23;10.90;36.00
39325;DHT22;25037;49.488;9.900;2023-04-03T15:11:51;11.00;36.10
39325;DHT22;25037;49.488;9.900;2023-04-03T15:14:18;11.00;36.10
39325;DHT22;25037;49.488;9.900;2023-04-03T15:17:02;11.10;36.10
39325;DHT22;25037;49.488;9.900;2023-04-03T15:19:32;11.10;35.70
39325;DHT22;25037;49.488;9.900;2023-04-03T15:22:02;11.10;36.00
39325;DHT22;25037;49.488;9.900;2023-04-03T15:24:30;11.00;35.60
39325;DHT22;25037;49.488;9.900;2023-04-03T15:26:56;10.90;35.40
39325;DHT22;25037;49.488;9.900;2023-04-03T15:29:23;10.90;35.80
39325;DHT22;25037;49.488;9.900;2023-04-03T15:31:50;10.80;35.60
39325;DHT22;25037;49.488;9.900;2023-04-03T15:34:20;10.70;35.40
39325;DHT22;25037;49.488;9.900;2023-04-03T15:36:49;10.60;35.60
39325;DHT22;25037;49.488;9.900;2023-04-03T15:39:16;10.50;35.60
39325;DHT22;25037;49.488;9.900;2023-04-03T15:41:42;10.50;35.40
39325;DHT22;25037;49.488;9.900;2023-04-03T15:44:09;10.60;35.30
39325;DHT22;25037;49.488;9.900;2023-04-03T15:46:36;10.60;35.20
39325;DHT22;25037;49.488;9.900;2023-04-03T15:49:04;10.60;35.30
39325;DHT22;25037;49.488;9.900;2023-04-03T15:51:31;10.50;35.50
39325;DHT22;25037;49.488;9.900;2023-04-03T15:53:58;10.50;35.40
39325;DHT22;25037;49.488;9.900;2023-04-03T15:56:24;10.40;35.60
39325;DHT22;25037;49.488;9.900;2023-04-03T15:58:51;10.30;35.30
39325;DHT22;25037;49.488;9.900;2023-04-03T16:01:18;10.30;35.30
39325;DHT22;25037;49.488;9.900;2023-04-03T16:03:45;10.30;35.40
39325;DHT22;25037;49.488;9.900;2023-04-03T16:06:16;10.20;35.50
39325;DHT22;25037;49.488;9.900;2023-04-03T16:08:46;10.20;35.40
39325;DHT22;25037;49.488;9.900;2023-04-03T16:11:14;10.10;35.70
39325;DHT22;25037;49.488;9.900;2023-04-03T16:13:41;10.10;35.90
39325;DHT22;25037;49.488;9.900;2023-04-03T16:16:08;10.10;36.10
39325;DHT22;25037;49.488;9.900;2023-04-03T16:18:36;10.10;36.20
39325;DHT22;25037;49.488;9.900;2023-04-03T16:21:03;10.10;36.30
39325;DHT22;25037;49.488;9.900;2023-04-03T16:23:30;10.00;35.70
39325;DHT22;25037;49.488;9.900;2023-04-03T16:25:56;9.90;35.70
39325;DHT22;25037;49.488;9.900;2023-04-03T16:28:23;9.80;35.70
39325;DHT22;25037;49.488;9.900;2023-04-03T16:30:50;9.70;36.00
39325;DHT22;25037;49.488;9.900;2023-04-03T16:33:17;9.70;36.40
39325;DHT22;25037;49.488;9.900;2023-04-03T16:35:48;9.50;36.20
39325;DHT22;25037;49.488;9.900;2023-04-03T16:38:15;9.50;36.50
39325;DHT22;25037;49.488;9.900;2023-04-03T16:40:42;9.50;36.60
39325;DHT22;25037;49.488;9.900;2023-04-03T16:43:09;9.50;36.80
39325;DHT22;25037;49.488;9.900;2023-04-03T16:45:37;9.50;36.70
39325;DHT22;25037;49.488;9.900;2023-04-03T16:48:04;9.40;36.90
39325;DHT22;25037;49.488;9.900;2023-04-03T16:50:31;9.30;37.00
39325;DHT22;25037;49.488;9.900;2023-04-03T16:52:58;9.20;37.20
39325;DHT22;25037;49.488;9.900;2023-04-03T16:55:25;9.10;37.00
39325;DHT22;25037;49.488;9.900;2023-04-03T16:57:51;8.90;37.30
39325;DHT22;25037;49.488;9.900;2023-04-03T17:00:18;8.80;37.40
39325;DHT22;25037;49.488;9.900;2023-04-03T17:02:45;8.70;37.60
39325;DHT22;25037;49.488;9.900;2023-04-03T17:05:12;8.60;37.80
39325;DHT22;25037;49.488;9.900;2023-04-03T17:07:38;8.50;37.90
39325;DHT22;25037;49.488;9.900;2023-04-03T17:10:06;8.50;38.20
39325;DHT22;25037;49.488;9.900;2023-04-03T17:12:32;8.40;38.50
39325;DHT22;25037;49.488;9.900;2023-04-03T17:14:59;8.30;38.70
39325;DHT22;25037;49.488;9.900;2023-04-03T17:17:26;8.30;38.90
39325;DHT22;25037;49.488;9.900;2023-04-03T17:19:54;8.30;39.10
39325;DHT22;25037;49.488;9.900;2023-04-03T17:22:21;8.20;39.20
39325;DHT22;25037;49.488;9.900;2023-04-03T17:24:47;8.20;39.30
39325;DHT22;25037;49.488;9.900;2023-04-03T17:27:14;8.10;39.50
39325;DHT22;25037;49.488;9.900;2023-04-03T17:29:41;8.00;39.70
39325;DHT22;25037;49.488;9.900;2023-04-03T17:32:07;8.00;39.80
39325;DHT22;25037;49.488;9.900;2023-04-03T17:34:34;7.90;40.00